Main page
METAR-TAF:

METAR-TAF

Airports :

Bückeburg Air Base

Bückeburg, Germany

latitude: 52-17N, longitude: 009-05E, elevation: 70 m

Current weather observation

The report was made 14 minutes ago, at 17:20 UTC
Wind 6 kt from the South
Temperature 5°C
Humidity 65%
Pressure 1011 hPa
Visibility 10 km or more

METAR: ETHB 281720Z AUTO 18006KT 9999 // ////// 05/M01 Q1011 ///

Time: 18:34 (17:34 UTC)

Forecast

The report was made 6 hours and 43 minutes ago, at 10:51 UTC
Forecast valid from 28 at 09 UTC to 28 at 18 UTC
Wind 12 kt from the West/Southwest with gusts up to 22 kt
Visibility 10 km or more
Scattered clouds at a height of 2500 ft
Becoming
from 28 at 16 UTC to 28 at 18 UTC
Wind 10 kt from the South
Visibility: 1115 m
Scattered clouds at a height of 1500 ft
Broken clouds at a height of 2500 ft

TAF: ETHB 281051Z 2809/2818 24012G22KT 9999 NSW SCT025 BECMG 2816/2818 19010KT 9999 NSW SCT015 BKN025 CANCEL 1115 BY ETHB

Weather observations and forecasts of more than 4000 airports (METAR and TAF reports).

The available stations are represented by yellow and red dots on the map.

Hover mouse over dot to see the name of the station.

Then click to see weather observations and forecasts.

To change the map : click on the green buttons with a black cross to zoom in, on the green button with a dash to zoom out, or on the green arrows for adjacent maps.


METAR-TAF: